createdAt,value
2023-12-11T00:01:34.754Z,8.40
2023-12-11T00:04:04.888Z,8.20
2023-12-11T00:06:33.372Z,8.10
2023-12-11T00:09:02.038Z,8.10
2023-12-11T00:11:30.462Z,8.00
2023-12-11T00:13:58.904Z,7.90
2023-12-11T00:16:27.328Z,7.90
2023-12-11T00:18:55.807Z,7.90
2023-12-11T00:21:25.630Z,7.90
2023-12-11T00:23:55.360Z,7.90
2023-12-11T00:26:23.832Z,7.90
2023-12-11T00:28:52.240Z,7.90
2023-12-11T00:31:20.749Z,7.90
2023-12-11T00:33:49.450Z,7.80
2023-12-11T00:36:17.953Z,7.60
2023-12-11T00:38:47.697Z,7.60
2023-12-11T00:41:17.406Z,7.40
2023-12-11T00:43:46.807Z,7.30
2023-12-11T00:46:15.915Z,7.30
2023-12-11T00:48:44.503Z,7.30
2023-12-11T00:51:17.623Z,7.30
2023-12-11T00:53:48.708Z,7.30
2023-12-11T00:56:17.746Z,7.20
2023-12-11T00:58:46.372Z,7.20
2023-12-11T01:01:14.995Z,7.30
2023-12-11T01:03:43.657Z,7.40
2023-12-11T01:06:12.166Z,7.40
2023-12-11T01:08:41.180Z,7.40
2023-12-11T01:11:11.203Z,7.40
2023-12-11T01:13:39.836Z,7.40
2023-12-11T01:16:09.072Z,7.50
2023-12-11T01:18:37.648Z,7.50
2023-12-11T01:21:06.633Z,7.60
2023-12-11T01:23:35.049Z,7.70
2023-12-11T01:26:03.577Z,7.80
2023-12-11T01:28:33.676Z,7.80
2023-12-11T01:31:02.072Z,7.80
2023-12-11T01:33:30.529Z,7.80
2023-12-11T01:35:58.963Z,7.90
2023-12-11T01:38:27.295Z,8.10
2023-12-11T01:40:55.663Z,7.80
2023-12-11T01:43:24.514Z,7.80
2023-12-11T01:46:03.131Z,7.70
2023-12-11T01:48:31.802Z,7.80
2023-12-11T01:51:00.643Z,7.90
2023-12-11T01:53:29.868Z,7.80
2023-12-11T01:55:58.666Z,7.80
2023-12-11T01:58:28.487Z,7.80
2023-12-11T02:00:58.442Z,7.80
2023-12-11T02:03:27.313Z,7.80
2023-12-11T02:05:55.760Z,7.80
2023-12-11T02:08:24.652Z,7.80
2023-12-11T02:10:53.079Z,7.80
2023-12-11T02:13:22.560Z,7.90
2023-12-11T02:15:52.402Z,7.80
2023-12-11T02:18:23.322Z,7.80
2023-12-11T02:20:51.881Z,7.80
2023-12-11T02:23:27.595Z,7.80
2023-12-11T02:26:09.943Z,7.90
2023-12-11T02:28:38.725Z,8.00
2023-12-11T02:31:07.906Z,7.90
2023-12-11T02:33:36.569Z,7.80
2023-12-11T02:36:05.388Z,7.80
2023-12-11T02:38:33.816Z,7.90
2023-12-11T02:41:03.877Z,7.80
2023-12-11T02:43:32.304Z,7.80
2023-12-11T02:46:00.689Z,7.80
2023-12-11T02:48:29.133Z,7.80
2023-12-11T02:50:57.609Z,7.90
2023-12-11T02:53:26.098Z,8.00
2023-12-11T02:55:54.529Z,8.00
2023-12-11T02:58:24.325Z,8.00
2023-12-11T03:00:52.919Z,8.00
2023-12-11T03:03:21.405Z,8.10
2023-12-11T03:05:49.903Z,8.20
2023-12-11T03:08:18.304Z,8.30
2023-12-11T03:10:50.135Z,8.20
2023-12-11T03:13:18.933Z,8.20
2023-12-11T03:15:48.963Z,8.20
2023-12-11T03:18:17.381Z,8.10
2023-12-11T03:20:45.885Z,8.10
2023-12-11T03:23:14.339Z,8.20
2023-12-11T03:25:42.701Z,8.20
2023-12-11T03:28:11.099Z,8.20
2023-12-11T03:30:39.521Z,8.30
2023-12-11T03:33:09.395Z,8.30
2023-12-11T03:35:37.755Z,8.30
2023-12-11T03:38:06.104Z,8.40
2023-12-11T03:40:34.456Z,8.40
2023-12-11T03:43:02.878Z,8.50
2023-12-11T03:45:31.331Z,8.50
2023-12-11T03:48:00.152Z,8.50
2023-12-11T03:50:30.245Z,8.50
2023-12-11T03:52:58.611Z,8.30
2023-12-11T03:55:27.006Z,8.40
2023-12-11T03:57:55.393Z,8.40
2023-12-11T04:00:24.500Z,8.40
2023-12-11T04:02:52.882Z,8.40
2023-12-11T04:05:21.242Z,8.50
2023-12-11T04:07:51.062Z,8.50
2023-12-11T04:10:19.656Z,8.50
2023-12-11T04:12:48.069Z,8.50
2023-12-11T04:15:16.526Z,8.40
2023-12-11T04:17:44.945Z,8.30
2023-12-11T04:20:13.680Z,8.30
2023-12-11T04:22:42.059Z,8.40
2023-12-11T04:25:11.982Z,8.40
2023-12-11T04:27:40.382Z,8.40
2023-12-11T04:30:09.810Z,8.40
2023-12-11T04:32:38.365Z,8.40
2023-12-11T04:35:07.344Z,8.30
2023-12-11T04:37:35.696Z,8.30
2023-12-11T04:40:04.959Z,8.30
2023-12-11T04:42:34.772Z,8.30
2023-12-11T04:45:03.132Z,8.30
2023-12-11T04:47:31.907Z,8.20
2023-12-11T04:50:00.716Z,8.30
2023-12-11T04:52:29.138Z,8.30
2023-12-11T04:54:58.686Z,8.30
2023-12-11T04:57:27.212Z,8.30
2023-12-11T04:59:56.936Z,8.30
2023-12-11T05:02:25.332Z,8.30
2023-12-11T05:04:53.757Z,8.30
2023-12-11T05:07:22.162Z,8.50
2023-12-11T05:09:50.687Z,8.40
2023-12-11T05:12:19.116Z,8.40
2023-12-11T05:14:47.683Z,8.50
2023-12-11T05:17:17.497Z,8.60
2023-12-11T05:19:46.094Z,8.50
2023-12-11T05:22:14.543Z,8.50
2023-12-11T05:24:42.917Z,8.50
2023-12-11T05:27:12.646Z,8.50
2023-12-11T05:29:41.033Z,8.50
2023-12-11T05:32:11.332Z,8.50
2023-12-11T05:34:41.118Z,8.60
2023-12-11T05:37:10.274Z,8.60
2023-12-11T05:39:41.453Z,8.60
2023-12-11T05:42:10.166Z,8.70
2023-12-11T05:44:38.927Z,8.70
2023-12-11T05:47:07.409Z,8.60
2023-12-11T05:49:35.924Z,8.60
2023-12-11T05:52:06.624Z,8.60
2023-12-11T05:54:35.018Z,8.60
2023-12-11T05:57:03.381Z,8.60
2023-12-11T05:59:31.746Z,8.60
2023-12-11T06:02:00.137Z,8.60
2023-12-11T06:04:28.573Z,8.60
2023-12-11T06:06:57.558Z,8.60
2023-12-11T06:09:27.357Z,8.60
2023-12-11T06:11:55.738Z,8.60
2023-12-11T06:14:24.646Z,8.70
2023-12-11T06:16:53.031Z,8.70
2023-12-11T06:19:21.550Z,8.80
2023-12-11T06:21:50.661Z,8.80
2023-12-11T06:24:19.037Z,8.80
2023-12-11T06:26:48.809Z,8.80
2023-12-11T06:29:17.230Z,8.80
2023-12-11T06:31:45.664Z,8.80
2023-12-11T06:34:14.065Z,8.80
2023-12-11T06:36:42.526Z,8.70
2023-12-11T06:39:11.416Z,8.80
2023-12-11T06:41:40.233Z,8.80
2023-12-11T06:44:11.037Z,8.70
2023-12-11T06:46:39.677Z,8.70
2023-12-11T06:49:08.219Z,8.80
2023-12-11T06:51:38.502Z,8.80
2023-12-11T06:54:07.091Z,8.70
2023-12-11T06:56:35.462Z,8.70
2023-12-11T06:59:05.928Z,8.80
2023-12-11T07:01:37.103Z,8.70
2023-12-11T07:04:07.016Z,8.70
2023-12-11T07:06:35.749Z,8.70
2023-12-11T07:09:05.546Z,8.80
2023-12-11T07:11:33.908Z,8.70
2023-12-11T07:14:02.374Z,8.70
2023-12-11T07:16:31.071Z,8.70
2023-12-11T07:19:00.985Z,8.60
2023-12-11T07:21:29.402Z,8.70
2023-12-11T07:23:57.750Z,8.70
2023-12-11T07:26:26.132Z,8.70
2023-12-11T07:28:54.850Z,8.70
2023-12-11T07:31:23.355Z,8.70
2023-12-11T07:33:52.813Z,8.70
2023-12-11T07:36:24.481Z,8.80
2023-12-11T07:38:52.857Z,8.80
2023-12-11T07:41:22.286Z,8.80
2023-12-11T07:43:50.631Z,8.80
2023-12-11T07:46:19.631Z,8.80
2023-12-11T07:48:48.597Z,8.70
2023-12-11T07:51:21.461Z,8.70
2023-12-11T07:53:51.291Z,8.80
2023-12-11T07:56:23.766Z,8.80
2023-12-11T07:58:52.422Z,8.90
2023-12-11T08:01:21.287Z,8.80
2023-12-11T08:03:49.967Z,8.80
2023-12-11T08:06:18.665Z,8.80
2023-12-11T08:08:47.083Z,8.80
2023-12-11T08:11:22.068Z,8.80
2023-12-11T08:13:51.221Z,8.80
2023-12-11T08:16:19.719Z,8.90
2023-12-11T08:18:49.543Z,8.80
2023-12-11T08:21:18.566Z,8.80
2023-12-11T08:23:49.080Z,8.80
2023-12-11T08:26:20.286Z,8.80
2023-12-11T08:28:49.226Z,8.80
2023-12-11T08:31:18.027Z,8.80
2023-12-11T08:33:46.692Z,8.70
2023-12-11T08:36:15.102Z,8.70
2023-12-11T08:38:43.462Z,8.60
2023-12-11T08:41:11.832Z,8.60
2023-12-11T08:43:41.759Z,8.40
2023-12-11T08:46:10.231Z,8.30
2023-12-11T08:48:38.779Z,8.20
2023-12-11T08:51:07.563Z,8.00
2023-12-11T08:53:35.917Z,8.00
2023-12-11T08:56:04.468Z,7.90
2023-12-11T08:58:33.008Z,7.80
2023-12-11T09:01:04.725Z,7.80
2023-12-11T09:03:32.882Z,7.80
2023-12-11T09:06:01.293Z,7.70
2023-12-11T09:08:29.692Z,7.70
2023-12-11T09:10:58.088Z,7.60
2023-12-11T09:13:29.257Z,7.60
2023-12-11T09:15:58.392Z,7.60
2023-12-11T09:18:28.448Z,7.50
2023-12-11T09:20:56.940Z,7.50
2023-12-11T09:23:25.330Z,7.50
2023-12-11T09:25:53.686Z,7.50
2023-12-11T09:28:22.093Z,7.50
2023-12-11T09:30:50.623Z,7.50
2023-12-11T09:33:19.119Z,7.50
2023-12-11T09:35:49.026Z,7.60
2023-12-11T09:38:17.362Z,7.60
2023-12-11T09:40:45.700Z,7.60
2023-12-11T09:43:14.604Z,7.60
2023-12-11T09:45:44.626Z,7.60
2023-12-11T09:48:15.151Z,7.60
2023-12-11T09:50:44.190Z,7.70
2023-12-11T09:53:15.208Z,7.70
2023-12-11T09:55:44.960Z,7.70
2023-12-11T09:58:13.642Z,7.70
2023-12-11T10:00:43.627Z,7.70
2023-12-11T10:03:12.281Z,7.60
2023-12-11T10:05:40.814Z,7.60
2023-12-11T10:08:09.201Z,7.60
2023-12-11T10:10:40.271Z,7.60
2023-12-11T10:13:09.126Z,7.60
2023-12-11T10:15:38.541Z,7.60
2023-12-11T10:18:09.727Z,7.60
2023-12-11T10:20:40.346Z,7.60
2023-12-11T10:23:17.205Z,7.60
2023-12-11T10:25:48.441Z,7.60
2023-12-11T10:28:18.394Z,7.60
2023-12-11T10:30:57.940Z,7.60
2023-12-11T10:33:28.364Z,7.60
2023-12-11T10:36:10.850Z,7.50
2023-12-11T10:38:40.089Z,7.50
2023-12-11T10:41:10.427Z,7.50
2023-12-11T10:43:56.166Z,7.50
2023-12-11T10:46:32.449Z,7.60
2023-12-11T10:49:01.631Z,7.50
2023-12-11T10:51:31.056Z,7.50
2023-12-11T10:54:00.260Z,7.60
2023-12-11T10:56:30.320Z,7.60
2023-12-11T10:59:00.099Z,7.60
2023-12-11T11:01:29.048Z,7.60
2023-12-11T11:03:57.664Z,7.60
2023-12-11T11:06:27.266Z,7.50
2023-12-11T11:09:03.723Z,7.60
2023-12-11T11:11:39.185Z,7.50
2023-12-11T11:14:29.860Z,7.60
2023-12-11T11:17:00.082Z,7.60
2023-12-11T11:19:30.951Z,7.60
2023-12-11T11:22:31.574Z,7.60
2023-12-11T11:25:38.474Z,7.60
2023-12-11T11:28:11.972Z,7.60
2023-12-11T11:30:53.485Z,7.60
2023-12-11T11:33:23.555Z,7.60
2023-12-11T11:35:53.760Z,7.60
2023-12-11T11:38:23.100Z,7.70
2023-12-11T11:40:52.810Z,7.60
2023-12-11T11:43:22.711Z,7.60
2023-12-11T11:45:57.006Z,7.70
2023-12-11T11:48:42.786Z,7.70
2023-12-11T11:51:11.886Z,7.70
2023-12-11T11:53:41.607Z,7.70
2023-12-11T11:56:10.714Z,7.70
2023-12-11T11:58:40.515Z,7.70
2023-12-11T12:01:09.154Z,7.70
2023-12-11T12:03:44.219Z,7.70
2023-12-11T12:06:15.442Z,7.70
2023-12-11T12:08:46.896Z,7.70
2023-12-11T12:11:16.535Z,7.70
2023-12-11T12:13:46.311Z,7.70
2023-12-11T12:16:14.629Z,7.70
2023-12-11T12:18:51.750Z,7.80
2023-12-11T12:21:20.099Z,7.80
2023-12-11T12:23:48.380Z,7.80
2023-12-11T12:26:17.111Z,7.70
2023-12-11T12:28:46.892Z,7.70
2023-12-11T12:31:15.350Z,7.70
2023-12-11T12:33:43.971Z,7.70
2023-12-11T12:36:12.848Z,7.70
2023-12-11T12:38:42.146Z,7.60
2023-12-11T12:41:13.773Z,7.60
2023-12-11T12:43:42.198Z,7.60
2023-12-11T12:46:11.936Z,7.60
2023-12-11T12:48:40.388Z,7.60
2023-12-11T12:51:10.441Z,7.60
2023-12-11T12:53:48.155Z,7.80
2023-12-11T12:56:19.108Z,7.60
2023-12-11T12:58:49.080Z,7.60
2023-12-11T13:01:18.927Z,7.70
2023-12-11T13:03:47.351Z,7.70
2023-12-11T13:06:28.473Z,7.70
2023-12-11T13:08:56.788Z,7.70
2023-12-11T13:11:40.476Z,7.80
2023-12-11T13:14:10.330Z,7.80
2023-12-11T13:16:40.229Z,7.80
2023-12-11T13:19:08.771Z,7.80
2023-12-11T13:21:37.264Z,7.80
2023-12-11T13:24:06.887Z,7.80
2023-12-11T13:26:35.115Z,7.80
2023-12-11T13:29:04.553Z,7.80
2023-12-11T13:31:32.941Z,7.80
2023-12-11T13:34:03.290Z,7.80
2023-12-11T13:36:31.639Z,7.80
2023-12-11T13:38:59.960Z,7.80
2023-12-11T13:41:28.495Z,7.80
2023-12-11T13:43:56.835Z,7.80
2023-12-11T13:46:25.420Z,7.80
2023-12-11T13:48:53.829Z,7.80
2023-12-11T13:51:23.704Z,7.80
2023-12-11T13:53:52.112Z,7.80
2023-12-11T13:56:20.697Z,7.80
2023-12-11T13:58:50.024Z,7.80
2023-12-11T14:01:18.622Z,7.90
2023-12-11T14:03:47.105Z,7.80
2023-12-11T14:06:15.722Z,7.90
2023-12-11T14:08:44.498Z,7.90
2023-12-11T14:11:12.753Z,7.90
2023-12-11T14:13:40.973Z,7.80
2023-12-11T14:16:10.346Z,7.80
2023-12-11T14:18:42.260Z,7.80
2023-12-11T14:21:11.908Z,7.80
2023-12-11T14:23:40.557Z,7.80
2023-12-11T14:26:10.289Z,7.80
2023-12-11T14:28:38.535Z,7.80
2023-12-11T14:31:11.802Z,7.80
2023-12-11T14:33:40.585Z,7.80
2023-12-11T14:36:15.517Z,7.70
2023-12-11T14:38:50.914Z,7.70
2023-12-11T14:41:20.573Z,7.70
2023-12-11T14:43:48.859Z,7.70
2023-12-11T14:46:17.206Z,7.70
2023-12-11T14:48:46.603Z,7.70
2023-12-11T14:51:14.966Z,7.80
2023-12-11T14:53:43.274Z,7.80
2023-12-11T14:56:12.676Z,7.80
2023-12-11T14:58:42.361Z,7.80
2023-12-11T15:01:10.752Z,7.80
2023-12-11T15:03:39.063Z,7.80
2023-12-11T15:06:08.301Z,7.80
2023-12-11T15:08:36.516Z,7.70
2023-12-11T15:11:04.927Z,7.70
2023-12-11T15:13:33.210Z,7.70
2023-12-11T15:16:04.182Z,7.70
2023-12-11T15:18:32.593Z,7.70
2023-12-11T15:21:00.934Z,7.70
2023-12-11T15:23:29.218Z,7.70
2023-12-11T15:25:58.191Z,7.70
2023-12-11T15:28:26.585Z,7.70
2023-12-11T15:31:12.404Z,7.70
2023-12-11T15:33:44.404Z,7.70
2023-12-11T15:36:16.598Z,7.70
2023-12-11T15:38:45.043Z,7.70
2023-12-11T15:41:14.013Z,7.80
2023-12-11T15:43:43.681Z,7.80
2023-12-11T15:46:12.141Z,7.80
2023-12-11T15:48:44.781Z,7.80
2023-12-11T15:51:17.055Z,7.80
2023-12-11T15:53:46.344Z,7.80
2023-12-11T15:56:17.413Z,7.80
2023-12-11T15:58:46.598Z,7.80
2023-12-11T16:01:16.183Z,7.80
2023-12-11T16:03:45.088Z,7.80
2023-12-11T16:06:14.964Z,7.80
2023-12-11T16:08:43.320Z,7.80
2023-12-11T16:11:15.841Z,7.70
2023-12-11T16:13:44.200Z,7.70
2023-12-11T16:16:13.351Z,7.60
2023-12-11T16:18:42.580Z,7.60
2023-12-11T16:21:10.991Z,7.60
2023-12-11T16:23:40.759Z,7.60
2023-12-11T16:26:15.398Z,7.50
2023-12-11T16:28:43.785Z,7.50
2023-12-11T16:31:12.371Z,7.50
2023-12-11T16:33:41.274Z,7.50
2023-12-11T16:36:14.322Z,7.50
2023-12-11T16:38:44.455Z,7.50
2023-12-11T16:41:12.812Z,7.50
2023-12-11T16:43:49.294Z,7.50
2023-12-11T16:46:18.329Z,7.50
2023-12-11T16:48:46.859Z,7.50
2023-12-11T16:51:15.320Z,7.50
2023-12-11T16:53:47.080Z,7.50
2023-12-11T16:56:16.215Z,7.50
2023-12-11T16:58:44.833Z,7.50
2023-12-11T17:01:14.718Z,7.50
2023-12-11T17:03:43.503Z,7.50
2023-12-11T17:06:16.804Z,7.50
2023-12-11T17:08:47.097Z,7.50
2023-12-11T17:11:15.552Z,7.40
2023-12-11T17:13:43.826Z,7.40
2023-12-11T17:16:12.084Z,7.40
2023-12-11T17:18:42.199Z,7.40
2023-12-11T17:21:15.840Z,7.40
2023-12-11T17:23:51.297Z,7.40
2023-12-11T17:26:19.786Z,7.40
2023-12-11T17:28:48.066Z,7.40
2023-12-11T17:31:16.342Z,7.40
2023-12-11T17:33:44.700Z,7.40
2023-12-11T17:36:13.178Z,7.30
2023-12-11T17:38:41.466Z,7.40
2023-12-11T17:41:11.293Z,7.30
2023-12-11T17:43:39.556Z,7.30
2023-12-11T17:46:08.035Z,7.40
2023-12-11T17:48:37.225Z,7.40
2023-12-11T17:51:08.292Z,7.40
2023-12-11T17:53:37.860Z,7.40
2023-12-11T17:56:09.627Z,7.40
2023-12-11T17:58:42.436Z,7.50
2023-12-11T18:01:11.744Z,7.50
2023-12-11T18:03:40.635Z,7.50
2023-12-11T18:06:17.184Z,7.50
2023-12-11T18:08:45.893Z,7.50
2023-12-11T18:11:14.789Z,7.50
2023-12-11T18:13:46.066Z,7.40
2023-12-11T18:16:14.913Z,7.40
2023-12-11T18:18:43.516Z,7.40
2023-12-11T18:21:11.830Z,7.30
2023-12-11T18:23:40.065Z,7.30
2023-12-11T18:26:12.984Z,7.30
2023-12-11T18:28:41.328Z,7.30
2023-12-11T18:31:11.168Z,7.30
2023-12-11T18:33:40.715Z,7.30
2023-12-11T18:36:09.733Z,7.30
2023-12-11T18:38:38.735Z,7.30
2023-12-11T18:41:07.081Z,7.30
2023-12-11T18:43:35.774Z,7.30
2023-12-11T18:46:04.148Z,7.20
2023-12-11T18:48:33.859Z,7.10
2023-12-11T18:51:02.223Z,7.10
2023-12-11T18:53:30.523Z,7.10
2023-12-11T18:56:00.849Z,7.20
2023-12-11T18:58:29.917Z,7.20
2023-12-11T19:01:01.028Z,7.20
2023-12-11T19:03:29.556Z,7.20
2023-12-11T19:05:59.238Z,7.30
2023-12-11T19:08:27.521Z,7.20
2023-12-11T19:10:55.791Z,7.20
2023-12-11T19:13:24.422Z,7.20
2023-12-11T19:15:53.000Z,7.20
2023-12-11T19:18:22.691Z,7.10
2023-12-11T19:20:52.375Z,7.20
2023-12-11T19:23:22.077Z,7.30
2023-12-11T19:25:52.516Z,7.30
2023-12-11T19:28:21.765Z,7.30
2023-12-11T19:30:50.232Z,7.30
2023-12-11T19:33:18.631Z,7.30
2023-12-11T19:35:46.924Z,7.30
2023-12-11T19:38:15.162Z,7.30
2023-12-11T19:40:44.943Z,7.30
2023-12-11T19:43:14.450Z,7.20
2023-12-11T19:45:42.775Z,7.20
2023-12-11T19:48:11.176Z,7.20
2023-12-11T19:50:39.642Z,7.20
2023-12-11T19:53:08.003Z,7.30
2023-12-11T19:55:36.311Z,7.20
2023-12-11T19:58:06.037Z,7.20
2023-12-11T20:00:34.363Z,7.20
2023-12-11T20:03:02.642Z,7.20
2023-12-11T20:05:31.004Z,7.20
2023-12-11T20:07:59.306Z,7.20
2023-12-11T20:10:27.820Z,7.20
2023-12-11T20:12:56.178Z,7.20
2023-12-11T20:15:25.873Z,7.20
2023-12-11T20:17:54.139Z,7.10
2023-12-11T20:20:22.477Z,7.10
2023-12-11T20:22:50.701Z,7.00
2023-12-11T20:25:18.971Z,7.00
2023-12-11T20:27:47.373Z,7.00
2023-12-11T20:30:17.441Z,7.00
2023-12-11T20:32:47.251Z,6.90
2023-12-11T20:35:15.700Z,6.90
2023-12-11T20:37:44.055Z,6.90
2023-12-11T20:40:13.541Z,6.90
2023-12-11T20:42:41.859Z,7.00
2023-12-11T20:45:10.707Z,7.00
2023-12-11T20:47:39.007Z,7.00
2023-12-11T20:50:13.019Z,7.00
2023-12-11T20:52:41.718Z,7.00
2023-12-11T20:55:10.725Z,7.00
2023-12-11T20:57:39.072Z,7.10
2023-12-11T21:00:11.393Z,7.10
2023-12-11T21:02:39.859Z,7.10
2023-12-11T21:05:10.896Z,7.20
2023-12-11T21:07:42.476Z,7.20
2023-12-11T21:10:10.868Z,7.20
2023-12-11T21:12:39.476Z,7.30
2023-12-11T21:15:08.654Z,7.30
2023-12-11T21:17:41.727Z,7.30
2023-12-11T21:20:13.259Z,7.20
2023-12-11T21:22:42.167Z,7.20
2023-12-11T21:25:11.464Z,7.10
2023-12-11T21:27:40.371Z,7.10
2023-12-11T21:30:11.116Z,7.00
2023-12-11T21:32:44.105Z,7.00
2023-12-11T21:35:14.825Z,7.00
2023-12-11T21:37:43.630Z,6.90
2023-12-11T21:40:12.852Z,6.90
2023-12-11T21:42:42.734Z,6.80
2023-12-11T21:45:11.504Z,6.80
2023-12-11T21:47:39.882Z,6.80
2023-12-11T21:50:10.434Z,6.80
2023-12-11T21:52:40.191Z,7.00
2023-12-11T21:55:09.275Z,7.00
2023-12-11T21:57:37.586Z,6.90
2023-12-11T22:00:07.042Z,6.90
2023-12-11T22:02:35.298Z,6.90
2023-12-11T22:05:03.649Z,7.00
2023-12-11T22:07:32.242Z,6.90
2023-12-11T22:10:02.331Z,6.90
2023-12-11T22:12:30.667Z,6.90
2023-12-11T22:14:58.924Z,6.80
2023-12-11T22:17:27.190Z,6.80
2023-12-11T22:19:55.484Z,6.90
2023-12-11T22:22:23.797Z,6.90
2023-12-11T22:24:52.130Z,6.90
2023-12-11T22:27:21.830Z,6.90
2023-12-11T22:29:50.118Z,6.90
2023-12-11T22:32:18.360Z,7.00
2023-12-11T22:34:46.790Z,7.00
2023-12-11T22:37:17.052Z,7.10
2023-12-11T22:39:45.623Z,7.10
2023-12-11T22:42:13.895Z,7.10
2023-12-11T22:44:43.987Z,7.10
2023-12-11T22:47:12.660Z,7.10
2023-12-11T22:49:40.983Z,7.10
2023-12-11T22:52:09.397Z,7.10
2023-12-11T22:54:37.637Z,7.10
2023-12-11T22:57:05.343Z,7.10
2023-12-11T22:59:33.652Z,7.10
2023-12-11T23:02:04.553Z,7.10
2023-12-11T23:04:33.123Z,7.10
2023-12-11T23:07:01.445Z,7.20
2023-12-11T23:09:29.755Z,7.20
2023-12-11T23:11:57.994Z,7.10
2023-12-11T23:14:26.253Z,6.90
2023-12-11T23:16:54.645Z,7.20
2023-12-11T23:19:24.385Z,7.20
2023-12-11T23:21:53.285Z,7.20
2023-12-11T23:24:21.613Z,7.20
2023-12-11T23:26:49.876Z,7.20
2023-12-11T23:29:18.238Z,7.20
2023-12-11T23:31:46.462Z,7.30
2023-12-11T23:34:15.594Z,7.40
2023-12-11T23:36:45.524Z,7.30
2023-12-11T23:39:14.026Z,7.30
2023-12-11T23:41:42.838Z,7.30
2023-12-11T23:44:11.324Z,7.30
2023-12-11T23:46:39.891Z,7.30
2023-12-11T23:49:08.532Z,7.30
2023-12-11T23:51:37.080Z,7.30
2023-12-11T23:54:07.168Z,7.30
2023-12-11T23:56:35.427Z,7.30
2023-12-11T23:59:06.266Z,7.30
